Time;durP1;ratioP1;P1;durP2;ratioP2;P2;SDS_P1;SDS_P2;PMS_P1;PMS_P2;Temp;Humidity;BMP_temperature;BMP_pressure;BME280_temperature;BME280_humidity;BME280_pressure;Samples;Min_cycle;Max_cycle;Signal;HPM_P1;HPM_P2
2022/07/25 00:00:08;;;;;;;8.60;6.57;;;;;;;24.21;52.06;99213.56;343882;28;1463;-72
2022/07/25 00:00:20;;;;;;;7.20;6.40;;;;;;;24.19;52.55;99208.38;343782;28;1134;-71
2022/07/25 00:00:32;;;;;;;7.28;6.53;;;;;;;24.19;52.42;99218.19;343804;28;1077;-71
2022/07/25 00:00:44;;;;;;;7.25;6.55;;;;;;;24.19;52.42;99213.69;343836;28;1051;-72
2022/07/25 00:00:57;;;;;;;6.82;6.22;;;;;;;24.19;52.15;99211.03;344106;28;1736;-71
2022/07/25 00:01:11;;;;;;;6.70;6.10;;;;;;;24.19;52.09;99219.00;344970;28;1829;-71
2022/07/25 00:01:23;;;;;;;6.93;6.22;;;;;;;24.20;51.78;99211.88;346068;28;1066;-70
2022/07/25 00:01:35;;;;;;;7.80;6.50;;;;;;;24.20;52.14;99210.03;345377;28;1189;-71
2022/07/25 00:01:49;;;;;;;7.78;6.63;;;;;;;24.22;52.31;99207.25;344756;28;1276;-71
2022/07/25 00:02:01;;;;;;;7.18;6.47;;;;;;;24.23;52.50;99209.75;344643;28;1375;-70
2022/07/25 00:02:13;;;;;;;7.13;6.43;;;;;;;24.22;52.68;99213.38;345722;28;1061;-71
2022/07/25 00:02:26;;;;;;;7.30;6.60;;;;;;;24.21;52.71;99211.72;344672;28;2037;-72
2022/07/25 00:02:38;;;;;;;7.15;6.45;;;;;;;24.22;52.29;99213.38;344790;28;1176;-71
2022/07/25 00:02:51;;;;;;;7.00;6.32;;;;;;;24.21;52.88;99198.44;344668;28;2070;-69
2022/07/25 00:03:03;;;;;;;6.80;6.20;;;;;;;24.22;53.37;99201.94;344681;28;1665;-71
2022/07/25 00:03:15;;;;;;;7.00;6.30;;;;;;;24.22;52.90;99201.94;344445;28;2067;-71
2022/07/25 00:03:30;;;;;;;7.05;6.35;;;;;;;24.21;53.30;99206.41;345011;28;1084;-71
2022/07/25 00:03:41;;;;;;;7.07;6.38;;;;;;;24.25;53.11;99206.97;344020;28;1712;-72
2022/07/25 00:03:53;;;;;;;8.50;6.47;;;;;;;24.22;52.45;99202.75;345089;28;1066;-71
2022/07/25 00:04:07;;;;;;;11.55;6.75;;;;;;;24.21;52.37;99203.75;345020;28;1113;-71
2022/07/25 00:04:23;;;;;;;10.45;6.63;;;;;;;24.20;52.51;99210.03;346462;28;1014;-71
2022/07/25 00:04:35;;;;;;;6.85;6.15;;;;;;;24.19;52.58;99205.72;346242;28;940;-70
2022/07/25 00:04:47;;;;;;;6.80;6.07;;;;;;;24.18;52.30;99201.38;345683;28;1146;-71
2022/07/25 00:04:59;;;;;;;7.15;6.32;;;;;;;24.17;51.95;99199.72;344677;28;1774;-72
2022/07/25 00:05:11;;;;;;;7.75;6.47;;;;;;;24.19;51.92;99205.72;344943;28;1892;-72
2022/07/25 00:05:24;;;;;;;7.57;6.70;;;;;;;24.21;51.66;99201.09;344793;28;2161;-72
2022/07/25 00:05:35;;;;;;;7.45;6.68;;;;;;;24.20;51.67;99204.72;345213;28;1915;-71
2022/07/25 00:05:49;;;;;;;7.40;6.55;;;;;;;24.21;51.42;99205.59;345137;28;1034;-71
2022/07/25 00:06:00;;;;;;;7.85;6.25;;;;;;;24.20;51.20;99199.41;344077;28;1631;-71
2022/07/25 00:06:12;;;;;;;7.93;6.30;;;;;;;24.20;51.29;99199.41;344694;28;1426;-72
2022/07/25 00:06:28;;;;;;;7.17;6.47;;;;;;;24.20;51.63;99199.41;344964;28;1230;-72
2022/07/25 00:06:41;;;;;;;7.13;6.43;;;;;;;24.21;51.65;99201.09;345571;28;1556;-72
2022/07/25 00:06:53;;;;;;;6.90;6.30;;;;;;;24.22;51.41;99200.09;345311;28;1763;-70
2022/07/25 00:07:05;;;;;;;6.88;6.28;;;;;;;24.21;51.62;99198.44;343835;28;1825;-70
2022/07/25 00:07:17;;;;;;;7.00;6.30;;;;;;;24.21;51.77;99201.09;345331;28;1002;-72
2022/07/25 00:07:29;;;;;;;7.43;6.38;;;;;;;24.24;51.47;99206.09;344419;28;1741;-71
2022/07/25 00:07:42;;;;;;;8.02;6.57;;;;;;;24.24;51.51;99199.97;344889;28;1879;-71
2022/07/25 00:07:53;;;;;;;7.32;6.38;;;;;;;24.24;51.46;99200.78;345211;28;1067;-72
2022/07/25 00:08:05;;;;;;;7.20;6.32;;;;;;;24.26;51.44;99198.81;343975;28;1673;-71
2022/07/25 00:08:17;;;;;;;7.13;6.30;;;;;;;24.24;51.94;99200.78;345297;28;1808;-71
2022/07/25 00:08:29;;;;;;;7.95;6.40;;;;;;;24.26;51.23;99204.13;346396;28;1018;-69
2022/07/25 00:08:41;;;;;;;7.55;6.40;;;;;;;24.23;51.53;99198.31;344314;28;1942;-71
2022/07/25 00:08:53;;;;;;;7.05;6.38;;;;;;;24.26;51.48;99201.47;343467;28;1778;-70
2022/07/25 00:09:05;;;;;;;7.10;6.40;;;;;;;24.27;51.09;99200.50;344757;28;1781;-71
2022/07/25 00:09:17;;;;;;;6.97;6.30;;;;;;;24.26;51.10;99204.13;345245;28;1171;-71
2022/07/25 00:09:29;;;;;;;7.70;6.60;;;;;;;24.27;51.04;99195.19;344871;28;1406;-71
2022/07/25 00:09:41;;;;;;;7.78;6.70;;;;;;;24.28;51.12;99193.38;345965;28;1298;-72
2022/07/25 00:09:53;;;;;;;7.72;6.57;;;;;;;24.28;51.18;99196.84;345204;28;1745;-71
2022/07/25 00:10:06;;;;;;;7.30;6.40;;;;;;;24.30;51.23;99202.03;343978;28;1611;-71
2022/07/25 00:10:19;;;;;;;7.18;6.20;;;;;;;24.29;51.22;99203.84;345187;28;1196;-72
2022/07/25 00:10:31;;;;;;;8.38;6.32;;;;;;;24.28;51.22;99196.84;344598;28;1468;-72
2022/07/25 00:10:43;;;;;;;8.55;6.32;;;;;;;24.28;51.31;99196.03;346057;28;1115;-71
2022/07/25 00:10:55;;;;;;;9.80;6.40;;;;;;;24.27;50.99;99195.19;344841;28;1866;-71
2022/07/25 00:11:07;;;;;;;10.68;6.45;;;;;;;24.28;51.38;99199.50;344209;28;1797;-72
2022/07/25 00:11:19;;;;;;;9.15;6.72;;;;;;;24.27;51.44;99205.81;343824;28;1228;-72
2022/07/25 00:11:31;;;;;;;7.85;6.53;;;;;;;24.27;51.32;99200.50;343697;28;1050;-72
2022/07/25 00:11:43;;;;;;;7.53;6.25;;;;;;;24.30;51.28;99196.72;343430;28;1216;-72
2022/07/25 00:11:55;;;;;;;6.88;6.22;;;;;;;24.30;51.16;99194.88;343600;28;1815;-72
2022/07/25 00:12:07;;;;;;;8.00;6.55;;;;;;;24.30;51.37;99199.38;344807;28;1801;-72
2022/07/25 00:12:22;;;;;;;9.00;6.50;;;;;;;24.28;51.08;99202.16;343627;28;2163;-72
2022/07/25 00:12:34;;;;;;;8.02;6.50;;;;;;;24.27;51.11;99195.19;344691;28;1303;-72
2022/07/25 00:12:46;;;;;;;7.45;6.68;;;;;;;24.28;51.26;99196.84;344811;28;1177;-72
2022/07/25 00:12:58;;;;;;;7.40;6.70;;;;;;;24.25;50.84;99191.03;343969;28;1857;-71
2022/07/25 00:13:10;;;;;;;7.45;6.75;;;;;;;24.20;50.85;99193.28;344772;28;1822;-71
2022/07/25 00:13:22;;;;;;;7.03;6.32;;;;;;;24.22;51.37;99200.09;344892;28;1103;-71
2022/07/25 00:13:34;;;;;;;7.20;6.50;;;;;;;24.23;50.92;99195.66;344858;28;1278;-71
2022/07/25 00:13:46;;;;;;;7.60;6.68;;;;;;;24.22;51.22;99197.44;343955;28;1772;-71
2022/07/25 00:13:58;;;;;;;7.40;6.55;;;;;;;24.22;51.27;99194.78;343816;28;1800;-71
2022/07/25 00:14:10;;;;;;;7.25;6.53;;;;;;;24.21;51.29;99195.78;344637;28;1672;-71
2022/07/25 00:14:22;;;;;;;7.20;6.50;;;;;;;24.25;51.39;99197.16;344733;28;1689;-71
2022/07/25 00:14:33;;;;;;;7.35;6.60;;;;;;;24.28;51.76;99199.50;345082;28;1025;-71
2022/07/25 00:14:47;;;;;;;7.32;6.60;;;;;;;24.28;51.47;99202.16;345081;28;1043;-72
2022/07/25 00:14:59;;;;;;;7.18;6.47;;;;;;;24.28;51.34;99201.34;344057;28;1949;-72
2022/07/25 00:15:11;;;;;;;7.20;6.50;;;;;;;24.30;51.35;99200.19;344752;28;1842;-72
2022/07/25 00:15:23;;;;;;;6.97;6.28;;;;;;;24.29;51.46;99198.53;344654;28;1206;-71
2022/07/25 00:15:35;;;;;;;9.52;6.28;;;;;;;24.30;51.31;99200.19;344616;28;1724;-72
2022/07/25 00:15:47;;;;;;;9.43;6.20;;;;;;;24.29;51.24;99195.06;346384;28;1057;-70
2022/07/25 00:15:59;;;;;;;9.23;6.47;;;;;;;24.30;51.59;99202.84;343425;28;1913;-71
2022/07/25 00:16:12;;;;;;;8.32;6.57;;;;;;;24.30;51.25;99197.53;345535;28;1880;-71
2022/07/25 00:16:24;;;;;;;8.13;6.35;;;;;;;24.28;51.19;99196.03;346388;28;1117;-71
2022/07/25 00:16:36;;;;;;;6.97;6.28;;;;;;;24.23;50.67;99198.31;346335;28;1090;-71
2022/07/25 00:16:48;;;;;;;7.72;6.20;;;;;;;24.21;50.98;99195.78;345483;28;1885;-70
2022/07/25 00:17:00;;;;;;;8.25;6.18;;;;;;;24.24;50.81;99195.47;343958;28;1895;-72
2022/07/25 00:17:12;;;;;;;8.05;6.15;;;;;;;24.20;51.02;99198.59;344244;28;1857;-72
2022/07/25 00:17:24;;;;;;;7.00;6.10;;;;;;;24.19;50.96;99200.41;345071;28;1295;-71
2022/07/25 00:17:36;;;;;;;6.80;6.15;;;;;;;24.18;50.89;99195.25;344750;28;2055;-72
2022/07/25 00:17:48;;;;;;;7.13;6.43;;;;;;;24.18;51.03;99201.38;346323;28;1101;-71
2022/07/25 00:18:01;;;;;;;7.20;6.50;;;;;;;24.17;50.73;99199.72;344420;28;2192;-71
2022/07/25 00:18:12;;;;;;;7.25;6.55;;;;;;;24.17;50.75;99194.41;345410;28;1733;-71
2022/07/25 00:18:25;;;;;;;7.43;6.45;;;;;;;24.19;50.70;99196.94;346238;28;1094;-72
2022/07/25 00:18:37;;;;;;;7.20;6.50;;;;;;;24.15;50.88;99193.72;344321;28;1162;-71
2022/07/25 00:18:49;;;;;;;7.20;6.60;;;;;;;24.16;50.95;99200.69;344924;28;1212;-71
2022/07/25 00:19:02;;;;;;;7.28;6.55;;;;;;;24.18;50.68;99201.38;344276;28;1460;-71
2022/07/25 00:19:14;;;;;;;8.15;6.53;;;;;;;24.17;51.22;99197.06;345399;28;1169;-70
2022/07/25 00:19:26;;;;;;;8.88;6.80;;;;;;;24.19;51.02;99197.75;346312;28;1832;-70
2022/07/25 00:19:38;;;;;;;7.70;6.70;;;;;;;24.17;51.52;99199.72;345385;28;1887;-71
2022/07/25 00:19:50;;;;;;;7.05;6.35;;;;;;;24.13;51.21;99201.84;344586;28;1274;-71
2022/07/25 00:20:04;;;;;;;7.50;6.13;;;;;;;24.05;51.41;99200.91;344695;28;1252;-72
2022/07/25 00:20:16;;;;;;;7.85;6.38;;;;;;;24.06;51.22;99202.56;344360;28;1910;-70
2022/07/25 00:20:28;;;;;;;9.23;6.60;;;;;;;24.04;51.18;99200.06;346028;28;1351;-71
2022/07/25 00:20:40;;;;;;;8.23;6.53;;;;;;;24.01;51.52;99202.19;346107;28;1070;-71
2022/07/25 00:20:52;;;;;;;7.18;6.47;;;;;;;24.05;51.19;99196.44;345271;28;1822;-70
2022/07/25 00:21:04;;;;;;;6.97;6.35;;;;;;;24.06;51.26;99206.06;344256;28;1776;-69
2022/07/25 00:21:16;;;;;;;6.80;6.20;;;;;;;24.12;51.72;99201.97;344698;28;1401;-72
2022/07/25 00:21:28;;;;;;;7.10;6.40;;;;;;;24.14;51.68;99200.00;345990;28;1289;-70
2022/07/25 00:21:40;;;;;;;7.38;6.63;;;;;;;24.11;51.73;99200.31;344252;28;2286;-71
2022/07/25 00:21:52;;;;;;;7.65;6.85;;;;;;;24.09;51.85;99196.97;343017;28;2099;-71
2022/07/25 00:22:04;;;;;;;7.20;6.50;;;;;;;24.06;51.48;99202.56;344146;28;1806;-71
2022/07/25 00:22:16;;;;;;;6.95;6.20;;;;;;;24.09;51.86;99208.44;345715;28;1067;-72
2022/07/25 00:22:28;;;;;;;7.10;6.20;;;;;;;24.10;51.48;99203.94;344626;28;2086;-71
2022/07/25 00:22:40;;;;;;;7.82;6.40;;;;;;;24.12;51.59;99201.97;346109;28;1178;-71
2022/07/25 00:22:52;;;;;;;8.60;6.38;;;;;;;24.12;51.62;99207.28;345641;28;1668;-71
2022/07/25 00:23:04;;;;;;;9.30;6.53;;;;;;;24.13;51.54;99203.66;344851;28;1848;-72
2022/07/25 00:23:16;;;;;;;8.88;6.35;;;;;;;24.13;51.65;99201.00;344619;28;1053;-71
2022/07/25 00:23:28;;;;;;;7.75;6.15;;;;;;;24.16;51.93;99203.34;343832;28;1111;-72
2022/07/25 00:23:40;;;;;;;7.53;6.60;;;;;;;24.16;52.53;99195.38;343936;28;1839;-71
2022/07/25 00:23:52;;;;;;;7.70;6.90;;;;;;;24.16;52.21;99195.38;344498;28;1777;-71
2022/07/25 00:24:04;;;;;;;7.68;6.57;;;;;;;24.17;52.21;99197.06;344329;28;1723;-71
2022/07/25 00:24:17;;;;;;;7.05;6.20;;;;;;;24.16;52.43;99202.53;345131;28;1114;-71
2022/07/25 00:24:29;;;;;;;7.18;6.20;;;;;;;24.17;52.39;99198.91;344989;28;1073;-71
2022/07/25 00:24:41;;;;;;;7.15;6.32;;;;;;;24.17;52.33;99198.91;344307;28;2252;-70
2022/07/25 00:24:53;;;;;;;7.75;6.35;;;;;;;24.18;52.25;99206.69;344430;28;1783;-71
2022/07/25 00:25:06;;;;;;;8.35;6.60;;;;;;;24.18;52.12;99201.38;344435;28;1520;-71
2022/07/25 00:25:18;;;;;;;8.80;6.57;;;;;;;24.17;52.26;99204.22;346072;28;1142;-71
2022/07/25 00:25:30;;;;;;;8.32;6.50;;;;;;;24.18;52.04;99197.91;346380;28;1299;-71
2022/07/25 00:25:42;;;;;;;7.95;6.45;;;;;;;24.18;52.03;99201.38;346472;28;1470;-71
2022/07/25 00:25:54;;;;;;;8.07;6.40;;;;;;;24.18;52.39;99201.38;345219;28;1835;-71
2022/07/25 00:26:06;;;;;;;8.00;6.57;;;;;;;24.18;52.09;99196.06;343001;28;5082;-71
2022/07/25 00:26:18;;;;;;;7.20;6.50;;;;;;;24.19;52.02;99203.06;344520;28;5201;-70
2022/07/25 00:26:30;;;;;;;7.30;6.60;;;;;;;24.19;52.14;99197.75;343987;28;1822;-70
2022/07/25 00:26:46;;;;;;;7.60;6.65;;;;;;;24.18;51.95;99206.69;344217;28;2760;-71
2022/07/25 00:26:58;;;;;;;8.10;6.75;;;;;;;24.18;51.86;99196.06;344134;28;1755;-70
2022/07/25 00:27:10;;;;;;;8.23;6.60;;;;;;;24.20;51.70;99199.41;344831;28;1640;-71
2022/07/25 00:27:22;;;;;;;7.82;6.50;;;;;;;24.20;51.77;99196.75;344057;28;1905;-71
2022/07/25 00:27:34;;;;;;;7.97;6.55;;;;;;;24.20;51.64;99198.59;343558;28;1721;-71
2022/07/25 00:27:46;;;;;;;7.72;6.63;;;;;;;24.22;51.77;99197.44;344734;28;1180;-71
2022/07/25 00:27:58;;;;;;;9.15;6.80;;;;;;;24.23;51.85;99193.81;344222;28;1625;-71
2022/07/25 00:28:10;;;;;;;9.68;6.80;;;;;;;24.23;51.75;99195.66;344651;28;2953;-71
2022/07/25 00:28:22;;;;;;;8.80;6.88;;;;;;;24.23;51.92;99199.13;344107;28;1827;-70
2022/07/25 00:28:34;;;;;;;8.05;6.78;;;;;;;24.20;51.36;99191.44;345305;28;1026;-71
2022/07/25 00:28:46;;;;;;;7.50;6.70;;;;;;;24.22;51.30;99194.78;345309;28;1046;-70
2022/07/25 00:28:58;;;;;;;7.60;6.72;;;;;;;24.25;51.63;99201.66;344375;28;1775;-71
2022/07/25 00:29:10;;;;;;;7.50;6.53;;;;;;;24.22;52.05;99194.78;344799;28;1815;-71
2022/07/25 00:29:22;;;;;;;8.35;6.57;;;;;;;24.23;51.65;99198.31;345113;28;1359;-70
2022/07/25 00:29:34;;;;;;;8.85;6.85;;;;;;;24.21;51.77;99195.78;344062;28;1828;-70
2022/07/25 00:29:46;;;;;;;7.72;6.88;;;;;;;24.19;51.73;99187.13;346033;28;1274;-72
2022/07/25 00:29:58;;;;;;;7.82;6.78;;;;;;;24.06;51.47;99198.09;344273;28;1846;-70
2022/07/25 00:30:11;;;;;;;7.78;6.65;;;;;;;24.07;51.79;99194.47;344323;28;1524;-71
2022/07/25 00:30:23;;;;;;;8.23;6.60;;;;;;;24.03;51.96;99203.72;344797;28;1070;-72
2022/07/25 00:30:35;;;;;;;7.97;6.72;;;;;;;24.07;51.72;99194.47;344957;28;1185;-71
2022/07/25 00:30:47;;;;;;;7.68;6.90;;;;;;;24.09;52.10;99202.28;345048;28;1240;-71
2022/07/25 00:30:59;;;;;;;7.32;6.63;;;;;;;24.12;52.01;99196.66;344301;28;1790;-72
2022/07/25 00:31:11;;;;;;;7.30;6.60;;;;;;;24.15;52.07;99199.03;344721;28;1610;-71
2022/07/25 00:31:23;;;;;;;7.43;6.68;;;;;;;24.14;51.94;99194.69;345914;28;1062;-72
2022/07/25 00:31:35;;;;;;;7.60;6.80;;;;;;;24.16;52.20;99198.03;346348;28;1180;-71
2022/07/25 00:31:47;;;;;;;7.50;6.70;;;;;;;24.17;52.11;99199.72;345667;28;1027;-71
2022/07/25 00:31:59;;;;;;;7.22;6.53;;;;;;;24.13;51.71;99193.88;344426;28;2079;-70
2022/07/25 00:32:11;;;;;;;7.03;6.32;;;;;;;24.17;51.74;99198.91;345139;28;2592;-70
2022/07/25 00:32:23;;;;;;;6.90;6.20;;;;;;;24.19;51.58;99192.44;346533;28;1104;-71
2022/07/25 00:32:35;;;;;;;7.53;6.07;;;;;;;24.20;51.74;99193.28;344822;28;1723;-70
2022/07/25 00:32:47;;;;;;;8.13;6.15;;;;;;;24.21;51.63;99195.78;344743;28;1177;-70
2022/07/25 00:32:59;;;;;;;8.07;6.43;;;;;;;24.25;51.39;99199.81;344178;28;1753;-71
2022/07/25 00:33:11;;;;;;;7.40;6.70;;;;;;;24.20;51.56;99194.09;344728;28;1788;-71
2022/07/25 00:33:23;;;;;;;7.30;6.60;;;;;;;24.22;51.49;99194.78;344848;28;1094;-71
2022/07/25 00:33:35;;;;;;;7.35;6.65;;;;;;;24.20;51.24;99196.75;344911;28;1085;-72
2022/07/25 00:33:47;;;;;;;7.13;6.45;;;;;;;24.23;51.39;99199.13;344622;28;1749;-71
2022/07/25 00:33:59;;;;;;;7.15;6.47;;;;;;;24.25;51.27;99202.47;343839;28;1806;-72
2022/07/25 00:34:11;;;;;;;7.63;6.30;;;;;;;24.26;51.59;99193.50;344293;28;1823;-71
2022/07/25 00:34:23;;;;;;;8.32;6.40;;;;;;;24.27;51.32;99200.50;344751;28;1190;-71
2022/07/25 00:34:35;;;;;;;7.65;6.65;;;;;;;24.29;51.10;99198.53;344957;28;1107;-71
2022/07/25 00:34:47;;;;;;;7.47;6.75;;;;;;;24.31;51.23;99204.53;344978;28;1276;-71
2022/07/25 00:34:59;;;;;;;7.30;6.60;;;;;;;24.30;51.46;99194.88;343683;28;1943;-71
2022/07/25 00:35:11;;;;;;;7.07;6.38;;;;;;;24.32;51.06;99198.22;344935;28;1785;-71
2022/07/25 00:35:23;;;;;;;7.38;6.60;;;;;;;24.34;51.28;99200.72;344875;28;1058;-71
2022/07/25 00:35:35;;;;;;;7.72;6.93;;;;;;;24.34;51.19;99195.44;344449;28;1802;-71
2022/07/25 00:35:47;;;;;;;7.35;6.65;;;;;;;24.35;50.98;99196.25;346332;28;1067;-72
2022/07/25 00:35:59;;;;;;;8.65;6.75;;;;;;;24.33;50.77;99194.59;344364;28;2031;-71
2022/07/25 00:36:11;;;;;;;9.07;6.55;;;;;;;24.32;51.33;99194.75;344340;28;1942;-71
2022/07/25 00:36:23;;;;;;;7.18;6.45;;;;;;;24.32;51.80;99198.22;344832;28;1630;-71
2022/07/25 00:36:35;;;;;;;7.10;6.40;;;;;;;24.33;51.80;99199.09;343257;28;1873;-72
2022/07/25 00:36:47;;;;;;;7.43;6.72;;;;;;;24.31;51.85;99191.25;344275;28;1921;-71
2022/07/25 00:36:59;;;;;;;7.50;6.75;;;;;;;24.32;51.69;99203.53;343921;28;2176;-71
2022/07/25 00:37:11;;;;;;;8.05;6.78;;;;;;;24.31;51.59;99201.06;344552;28;1395;-72
2022/07/25 00:37:23;;;;;;;8.50;6.78;;;;;;;24.30;51.23;99196.72;345973;28;1094;-71
2022/07/25 00:37:35;;;;;;;7.60;6.70;;;;;;;24.28;51.51;99194.19;344045;28;1776;-71
2022/07/25 00:37:47;;;;;;;7.00;6.30;;;;;;;24.32;52.35;99192.91;343717;28;1806;-71
2022/07/25 00:37:59;;;;;;;7.00;6.30;;;;;;;24.32;52.77;99198.22;344192;28;1288;-72
2022/07/25 00:38:11;;;;;;;7.68;6.55;;;;;;;24.31;52.51;99196.56;344395;28;1044;-72
2022/07/25 00:38:23;;;;;;;8.25;6.90;;;;;;;24.32;52.38;99192.09;345639;28;1055;-71
2022/07/25 00:38:35;;;;;;;8.13;6.60;;;;;;;24.35;52.57;99199.75;344994;28;1806;-71
2022/07/25 00:38:47;;;;;;;7.65;6.63;;;;;;;24.33;52.22;99199.91;344016;28;1791;-72
2022/07/25 00:38:59;;;;;;;10.55;6.65;;;;;;;24.29;52.52;99203.84;345002;28;1478;-71
2022/07/25 00:39:11;;;;;;;9.70;6.93;;;;;;;24.27;52.46;99200.50;344636;28;1098;-71
2022/07/25 00:39:23;;;;;;;7.50;6.78;;;;;;;24.26;52.36;99196.16;343607;28;1809;-72
2022/07/25 00:39:35;;;;;;;7.70;6.90;;;;;;;24.25;51.99;99191.03;343402;28;1243;-72
2022/07/25 00:39:47;;;;;;;7.80;7.00;;;;;;;24.26;52.25;99193.50;343520;28;1095;-71
2022/07/25 00:39:59;;;;;;;7.60;6.82;;;;;;;24.27;52.01;99195.19;343428;28;1735;-71
2022/07/25 00:40:12;;;;;;;7.05;6.35;;;;;;;24.29;51.66;99200.38;344215;28;1916;-70
2022/07/25 00:40:24;;;;;;;7.28;6.57;;;;;;;24.31;52.01;99196.56;344726;28;1065;-71
2022/07/25 00:40:36;;;;;;;7.32;6.60;;;;;;;24.32;52.10;99195.56;344105;28;1958;-71
2022/07/25 00:40:48;;;;;;;7.85;6.72;;;;;;;24.33;51.82;99196.41;344386;28;1659;-71
2022/07/25 00:41:06;;;;;;;7.78;6.85;;;;;;;24.34;51.62;99195.44;343217;28;1099;-72
2022/07/25 00:41:18;;;;;;;7.28;6.57;;;;;;;24.35;51.82;99196.25;344875;28;1106;-72
2022/07/25 00:41:30;;;;;;;7.47;6.70;;;;;;;24.36;51.67;99197.94;344838;28;1094;-71
2022/07/25 00:41:43;;;;;;;7.40;6.70;;;;;;;24.37;51.58;99196.94;344887;28;1479;-72
2022/07/25 00:41:55;;;;;;;7.72;6.93;;;;;;;24.36;52.06;99192.63;344164;28;1782;-71
2022/07/25 00:42:07;;;;;;;7.95;6.90;;;;;;;24.37;52.20;99199.59;344436;28;1823;-71
2022/07/25 00:42:20;;;;;;;7.60;6.80;;;;;;;24.36;52.02;99200.59;345076;28;1062;-71
2022/07/25 00:42:32;;;;;;;7.45;6.70;;;;;;;24.36;52.51;99195.28;343747;28;1236;-69
2022/07/25 00:42:44;;;;;;;8.18;7.00;;;;;;;24.38;52.18;99203.94;343594;28;1299;-71
2022/07/25 00:42:56;;;;;;;8.02;7.03;;;;;;;24.35;52.19;99191.78;343532;28;1758;-71
2022/07/25 00:43:08;;;;;;;7.60;6.75;;;;;;;24.35;52.44;99196.25;344914;28;1832;-72
2022/07/25 00:43:20;;;;;;;7.97;6.70;;;;;;;24.33;52.58;99199.91;343756;28;1232;-72
2022/07/25 00:43:32;;;;;;;8.43;6.68;;;;;;;24.35;52.50;99196.25;343584;28;1121;-71
2022/07/25 00:43:45;;;;;;;8.32;6.90;;;;;;;24.33;53.16;99194.59;343427;28;1114;-72
2022/07/25 00:43:57;;;;;;;8.10;7.00;;;;;;;24.32;52.96;99198.22;343370;28;1727;-72
2022/07/25 00:44:20;;;;;;;7.80;6.95;;;;;;;24.32;52.96;99195.56;344624;28;1454;-72
2022/07/25 00:44:35;;;;;;;8.23;6.57;;;;;;;24.32;52.79;99197.41;343520;28;1229;-71
2022/07/25 00:44:47;;;;;;;7.35;6.60;;;;;;;24.32;52.91;99198.22;343787;28;1086;-71
2022/07/25 00:44:59;;;;;;;7.40;6.60;;;;;;;24.33;52.81;99199.09;343648;28;1642;-71
2022/07/25 00:45:11;;;;;;;7.80;6.57;;;;;;;24.32;52.56;99192.91;344347;28;1829;-71
2022/07/25 00:45:23;;;;;;;10.13;6.80;;;;;;;24.31;52.43;99196.56;345091;28;1097;-71
2022/07/25 00:45:36;;;;;;;11.68;7.15;;;;;;;24.30;53.00;99200.19;345099;28;1432;-72
2022/07/25 00:45:48;;;;;;;10.75;7.00;;;;;;;24.31;53.02;99193.91;344195;28;1211;-71
2022/07/25 00:46:00;;;;;;;8.10;6.97;;;;;;;24.32;53.14;99198.22;344130;28;1705;-72
2022/07/25 00:46:13;;;;;;;7.70;7.00;;;;;;;24.32;52.57;99192.91;344577;28;2034;-72
2022/07/25 00:46:29;;;;;;;7.70;7.00;;;;;;;24.28;52.59;99191.53;344403;28;1755;-70
2022/07/25 00:46:42;;;;;;;7.85;7.05;;;;;;;24.30;52.68;99200.19;343711;28;1874;-72
2022/07/25 00:46:55;;;;;;;7.70;6.68;;;;;;;24.27;52.54;99195.19;345125;28;1054;-72
2022/07/25 00:47:07;;;;;;;7.68;6.63;;;;;;;24.29;52.66;99203.03;343750;28;1065;-72
2022/07/25 00:47:19;;;;;;;8.70;6.65;;;;;;;24.27;52.84;99199.69;343583;28;1169;-71
2022/07/25 00:47:31;;;;;;;8.82;6.68;;;;;;;24.28;52.80;99196.84;343473;28;1480;-71
2022/07/25 00:47:43;;;;;;;8.77;6.90;;;;;;;24.30;52.98;99196.72;343890;28;1413;-72
2022/07/25 00:47:55;;;;;;;8.32;7.00;;;;;;;24.30;53.08;99200.19;344701;28;1759;-71
2022/07/25 00:48:08;;;;;;;8.48;7.03;;;;;;;24.30;53.07;99205.50;344337;28;1815;-72
2022/07/25 00:48:19;;;;;;;8.48;6.95;;;;;;;24.30;52.66;99202.03;344582;28;1054;-70
2022/07/25 00:48:31;;;;;;;7.75;6.90;;;;;;;24.29;52.39;99195.88;344866;28;1128;-72
2022/07/25 00:48:44;;;;;;;8.45;6.88;;;;;;;24.27;52.70;99197.84;344824;28;1074;-71
2022/07/25 00:48:56;;;;;;;8.18;6.80;;;;;;;24.29;52.58;99203.03;344181;28;1986;-70
2022/07/25 00:49:08;;;;;;;8.25;6.78;;;;;;;24.28;52.74;99196.84;344401;28;1419;-71
2022/07/25 00:49:20;;;;;;;7.45;6.75;;;;;;;24.29;52.72;99198.53;346178;28;1769;-71
2022/07/25 00:49:32;;;;;;;7.45;6.72;;;;;;;24.30;52.58;99194.88;346022;28;1832;-71
2022/07/25 00:49:44;;;;;;;7.63;6.82;;;;;;;24.29;52.70;99197.72;344550;28;1572;-72
2022/07/25 00:49:56;;;;;;;7.75;6.95;;;;;;;24.28;52.69;99194.19;343582;28;1260;-72
2022/07/25 00:50:08;;;;;;;7.90;7.20;;;;;;;24.26;53.05;99204.13;344993;28;1248;-72
2022/07/25 00:50:20;;;;;;;7.70;7.00;;;;;;;24.27;53.17;99192.53;343557;28;1102;-71
2022/07/25 00:50:32;;;;;;;7.75;7.05;;;;;;;24.27;53.63;99194.38;343338;28;1130;-70
2022/07/25 00:50:44;;;;;;;7.80;7.07;;;;;;;24.26;53.50;99198.00;343946;28;1723;-72
2022/07/25 00:50:57;;;;;;;7.63;6.88;;;;;;;24.24;53.56;99198.13;343957;28;1818;-72
2022/07/25 00:51:10;;;;;;;7.55;6.78;;;;;;;24.24;52.94;99198.13;344102;28;1914;-71
2022/07/25 00:51:24;;;;;;;7.65;6.70;;;;;;;24.21;52.85;99187.81;343824;28;765;-71
2022/07/25 00:51:36;;;;;;;7.68;6.70;;;;;;;24.25;52.67;99194.50;344386;28;1577;-71
2022/07/25 00:51:48;;;;;;;9.30;6.63;;;;;;;24.24;52.67;99195.47;344435;28;1185;-71
2022/07/25 00:52:00;;;;;;;9.00;6.70;;;;;;;24.22;52.73;99197.44;343971;28;1676;-72
2022/07/25 00:52:13;;;;;;;7.88;6.72;;;;;;;24.23;52.60;99193.81;344263;28;1852;-72
2022/07/25 00:52:25;;;;;;;7.60;6.75;;;;;;;24.25;52.82;99199.81;344528;28;1178;-72
2022/07/25 00:52:38;;;;;;;7.70;6.93;;;;;;;24.23;53.00;99193.00;344428;28;1758;-71
2022/07/25 00:52:52;;;;;;;7.75;7.05;;;;;;;24.22;52.96;99192.13;346244;28;1246;-72
2022/07/25 00:53:04;;;;;;;7.60;6.90;;;;;;;24.24;53.00;99192.81;344664;28;1571;-70
2022/07/25 00:53:17;;;;;;;7.25;6.55;;;;;;;24.24;52.88;99195.47;345746;28;1115;-71
2022/07/25 00:53:29;;;;;;;7.45;6.68;;;;;;;24.26;52.56;99198.81;342782;28;3539;-72
2022/07/25 00:53:41;;;;;;;7.40;6.70;;;;;;;24.27;52.96;99189.06;344302;28;2741;-71
2022/07/25 00:53:55;;;;;;;7.10;6.40;;;;;;;24.26;53.19;99193.50;344691;28;1715;-70
2022/07/25 00:54:08;;;;;;;7.25;6.50;;;;;;;24.25;53.00;99197.16;344591;28;3003;-71
2022/07/25 00:54:21;;;;;;;7.75;6.70;;;;;;;24.23;53.29;99183.19;345156;28;1331;-72
2022/07/25 00:54:33;;;;;;;7.85;6.70;;;;;;;24.22;53.42;99189.47;343900;28;2125;-71
2022/07/25 00:54:46;;;;;;;7.45;6.75;;;;;;;24.21;53.10;99187.81;344841;28;1081;-71
2022/07/25 00:54:58;;;;;;;7.40;6.70;;;;;;;24.20;53.29;99183.47;344015;28;2812;-71
2022/07/25 00:55:11;;;;;;;7.22;6.53;;;;;;;24.22;52.63;99196.63;344005;28;1928;-71
2022/07/25 00:55:24;;;;;;;7.43;6.72;;;;;;;24.22;52.88;99186.00;343538;28;1039;-71
2022/07/25 00:55:36;;;;;;;7.63;6.93;;;;;;;24.22;52.48;99189.47;343377;28;1775;-71
2022/07/25 00:55:48;;;;;;;7.43;6.72;;;;;;;24.21;52.57;99192.31;346496;28;1098;-72
2022/07/25 00:56:01;;;;;;;7.63;6.78;;;;;;;24.19;52.95;99189.78;343484;28;1686;-71
2022/07/25 00:56:14;;;;;;;8.63;6.72;;;;;;;24.19;52.87;99187.13;344376;28;1643;-72
2022/07/25 00:56:26;;;;;;;8.65;6.80;;;;;;;24.20;53.00;99193.28;343820;28;1163;-71
2022/07/25 00:56:38;;;;;;;8.40;6.88;;;;;;;24.19;52.51;99184.47;343396;28;1941;-71
2022/07/25 00:56:50;;;;;;;7.88;6.95;;;;;;;24.19;52.52;99191.63;344098;28;1728;-71
2022/07/25 00:57:02;;;;;;;7.47;6.70;;;;;;;24.19;52.40;99192.44;344974;28;1321;-71
2022/07/25 00:57:14;;;;;;;7.78;7.00;;;;;;;24.19;52.58;99191.63;345086;28;1107;-72
2022/07/25 00:57:27;;;;;;;7.80;6.78;;;;;;;24.22;52.87;99192.13;343899;28;1099;-71
2022/07/25 00:57:39;;;;;;;7.97;6.88;;;;;;;24.22;52.84;99192.13;343630;28;1866;-71
2022/07/25 00:57:51;;;;;;;7.78;6.85;;;;;;;24.21;52.79;99185.16;343937;28;1777;-72
2022/07/25 00:58:03;;;;;;;7.80;6.93;;;;;;;24.21;52.73;99189.66;344964;28;1391;-72
2022/07/25 00:58:15;;;;;;;8.63;7.05;;;;;;;24.21;52.94;99189.66;344745;28;1809;-71
2022/07/25 00:58:27;;;;;;;8.35;7.30;;;;;;;24.21;52.73;99185.16;344916;28;1121;-72
2022/07/25 00:58:39;;;;;;;8.07;7.28;;;;;;;24.21;53.09;99185.16;344991;28;1109;-72
2022/07/25 00:58:51;;;;;;;7.57;6.88;;;;;;;24.20;53.08;99194.09;344193;28;2144;-72
2022/07/25 00:59:03;;;;;;;7.65;6.95;;;;;;;24.20;53.53;99188.78;343990;28;1620;-71
2022/07/25 00:59:16;;;;;;;7.60;6.90;;;;;;;24.20;52.82;99191.44;344861;28;1917;-71
2022/07/25 00:59:28;;;;;;;7.20;6.50;;;;;;;24.17;52.48;99191.75;345164;28;1353;-72